createdAt,value
2019-04-30T00:02:35.846Z,9.20
2019-04-30T00:07:50.876Z,9.47
2019-04-30T00:13:10.460Z,7.73
2019-04-30T00:18:25.629Z,8.17
2019-04-30T00:23:41.488Z,7.87
2019-04-30T00:28:57.338Z,8.40
2019-04-30T00:34:15.164Z,8.67
2019-04-30T00:39:31.466Z,10.07
2019-04-30T00:44:47.353Z,7.50
2019-04-30T00:50:04.956Z,8.10
2019-04-30T00:55:21.207Z,10.47
2019-04-30T01:00:45.495Z,11.73
2019-04-30T01:06:01.644Z,10.23
2019-04-30T01:11:17.867Z,11.80
2019-04-30T01:16:33.475Z,8.80
2019-04-30T01:21:50.792Z,9.07
2019-04-30T01:27:10.309Z,10.30
2019-04-30T01:32:24.105Z,11.47
2019-04-30T01:37:41.161Z,10.37
2019-04-30T01:42:57.041Z,9.17
2019-04-30T01:48:13.182Z,11.70
2019-04-30T01:53:29.085Z,11.23
2019-04-30T01:58:57.132Z,10.17
2019-04-30T02:04:13.234Z,10.47
2019-04-30T02:09:29.088Z,10.33
2019-04-30T02:14:46.092Z,13.17
2019-04-30T02:20:02.908Z,10.90
2019-04-30T02:25:19.948Z,10.07
2019-04-30T02:30:40.217Z,10.03
2019-04-30T02:36:19.983Z,8.67
2019-04-30T02:41:40.882Z,8.73
2019-04-30T02:47:00.280Z,11.43
2019-04-30T02:52:19.569Z,9.67
2019-04-30T02:57:39.532Z,10.50
2019-04-30T03:02:55.095Z,9.90
2019-04-30T03:08:29.917Z,9.73
2019-04-30T03:13:46.364Z,8.77
2019-04-30T03:19:32.337Z,7.93
2019-04-30T03:24:59.792Z,8.57
2019-04-30T03:30:21.313Z,9.07
2019-04-30T03:35:34.820Z,7.80
2019-04-30T03:40:52.704Z,7.93
2019-04-30T03:46:10.161Z,11.03
2019-04-30T03:51:30.431Z,8.13
2019-04-30T03:56:49.871Z,8.70
2019-04-30T04:02:30.185Z,7.53
2019-04-30T04:07:54.335Z,9.17
2019-04-30T04:13:12.139Z,8.10
2019-04-30T04:18:30.214Z,9.30
2019-04-30T04:23:54.875Z,6.63
2019-04-30T04:29:22.502Z,6.47
2019-04-30T04:34:40.059Z,7.97
2019-04-30T04:39:56.219Z,5.80
2019-04-30T04:45:12.555Z,5.67
2019-04-30T04:50:30.239Z,6.97
2019-04-30T04:55:46.734Z,9.23
2019-04-30T05:01:02.687Z,6.40
2019-04-30T05:06:21.820Z,5.23
2019-04-30T05:11:39.445Z,5.30
2019-04-30T05:16:55.067Z,6.43
2019-04-30T05:22:11.151Z,7.33
2019-04-30T05:27:27.204Z,8.60
2019-04-30T05:32:43.013Z,10.63
2019-04-30T05:37:59.294Z,8.40
2019-04-30T05:43:15.110Z,10.27
2019-04-30T05:48:31.057Z,10.50
2019-04-30T05:53:46.985Z,11.33
2019-04-30T05:59:03.411Z,11.00
2019-04-30T06:04:19.433Z,11.90
2019-04-30T06:09:50.234Z,14.07
2019-04-30T06:15:30.915Z,15.27
2019-04-30T06:20:48.674Z,13.13
2019-04-30T06:26:09.624Z,15.07
2019-04-30T06:31:32.286Z,15.77
2019-04-30T06:36:51.054Z,20.60
2019-04-30T06:42:06.447Z,16.13
2019-04-30T06:47:20.056Z,17.93
2019-04-30T06:52:35.466Z,15.93
2019-04-30T06:57:51.561Z,15.40
2019-04-30T07:03:09.584Z,14.77
2019-04-30T07:08:42.787Z,26.50
2019-04-30T07:14:00.034Z,16.63
2019-04-30T07:19:29.124Z,16.73
2019-04-30T07:24:33.358Z,17.60
2019-04-30T07:29:49.588Z,19.83
2019-04-30T07:35:05.434Z,15.37
2019-04-30T07:40:21.505Z,18.10
2019-04-30T07:45:39.239Z,14.87
2019-04-30T07:50:55.472Z,20.00
2019-04-30T07:56:24.137Z,16.80
2019-04-30T08:01:29.478Z,18.53
2019-04-30T08:06:45.342Z,20.37
2019-04-30T08:12:01.231Z,16.17
2019-04-30T08:17:18.839Z,22.40
2019-04-30T08:22:34.614Z,17.43
2019-04-30T08:27:50.690Z,18.10
2019-04-30T08:33:06.471Z,19.13
2019-04-30T08:38:29.927Z,21.87
2019-04-30T08:43:45.090Z,17.40
2019-04-30T08:49:01.264Z,19.27
2019-04-30T08:54:19.462Z,19.50
2019-04-30T08:59:34.675Z,16.07
2019-04-30T09:04:54.654Z,16.53
2019-04-30T09:10:10.612Z,19.50
2019-04-30T09:15:26.770Z,22.13
2019-04-30T09:20:42.439Z,21.07
2019-04-30T09:25:58.652Z,19.13
2019-04-30T09:31:14.526Z,22.17
2019-04-30T09:36:30.211Z,27.27
2019-04-30T09:41:46.038Z,23.97
2019-04-30T09:47:01.636Z,26.83
2019-04-30T09:52:19.735Z,21.27
2019-04-30T09:57:38.890Z,18.57
2019-04-30T10:02:53.985Z,23.17
2019-04-30T10:08:09.884Z,20.60
2019-04-30T10:13:25.637Z,21.13
2019-04-30T10:18:43.066Z,20.60
2019-04-30T10:24:11.854Z,23.30
2019-04-30T10:29:18.538Z,21.40
2019-04-30T10:34:34.381Z,23.37
2019-04-30T10:39:50.287Z,23.93
2019-04-30T10:45:11.150Z,20.03
2019-04-30T10:50:28.449Z,22.13
2019-04-30T10:55:44.481Z,22.93
2019-04-30T11:01:01.994Z,26.20
2019-04-30T11:06:19.200Z,25.20
2019-04-30T11:11:34.969Z,22.70
2019-04-30T11:16:51.688Z,26.97
2019-04-30T11:22:08.377Z,29.30
2019-04-30T11:27:24.914Z,23.40
2019-04-30T11:32:40.875Z,21.57
2019-04-30T11:37:56.946Z,35.97
2019-04-30T11:43:12.987Z,33.80
2019-04-30T11:48:28.992Z,35.17
2019-04-30T11:53:44.811Z,32.03
2019-04-30T11:59:00.475Z,28.17
2019-04-30T12:04:16.328Z,26.60
2019-04-30T12:09:54.279Z,28.63
2019-04-30T12:15:10.329Z,31.13
2019-04-30T12:20:26.126Z,29.90
2019-04-30T12:25:42.064Z,21.23
2019-04-30T12:30:58.879Z,20.27
2019-04-30T12:36:14.627Z,20.53
2019-04-30T12:41:30.346Z,24.90
2019-04-30T12:46:48.527Z,19.67
2019-04-30T12:52:11.026Z,20.10
2019-04-30T12:57:36.446Z,20.57
2019-04-30T13:02:52.528Z,18.53
2019-04-30T13:08:09.704Z,23.80
2019-04-30T13:13:25.814Z,18.77
2019-04-30T13:18:41.718Z,20.50
2019-04-30T13:23:57.547Z,16.63
2019-04-30T13:29:18.492Z,16.93
2019-04-30T13:35:00.986Z,10.07
2019-04-30T13:40:38.943Z,14.23
2019-04-30T13:45:53.984Z,19.10
2019-04-30T13:51:09.858Z,15.70
2019-04-30T13:56:28.543Z,15.37
2019-04-30T14:01:44.180Z,14.43
2019-04-30T14:07:17.662Z,14.37
2019-04-30T14:12:35.963Z,14.20
2019-04-30T14:17:51.598Z,14.03
2019-04-30T14:23:08.531Z,13.87
2019-04-30T14:28:25.653Z,14.60
2019-04-30T14:33:41.306Z,14.37
2019-04-30T14:39:13.109Z,12.33
2019-04-30T14:44:19.276Z,12.50
2019-04-30T14:50:02.030Z,10.67
2019-04-30T14:55:22.068Z,12.13
2019-04-30T15:00:56.698Z,14.20
2019-04-30T15:06:13.923Z,12.13
2019-04-30T15:11:30.037Z,13.77
2019-04-30T15:16:47.527Z,8.50
2019-04-30T15:22:04.030Z,10.40
2019-04-30T15:27:20.502Z,10.37
2019-04-30T15:32:39.572Z,9.50
2019-04-30T15:37:57.234Z,14.47
2019-04-30T15:43:14.194Z,12.10
2019-04-30T15:48:30.076Z,8.80
2019-04-30T15:53:45.556Z,10.13
2019-04-30T15:59:19.147Z,9.33
2019-04-30T16:04:51.520Z,10.87
2019-04-30T16:10:19.971Z,13.50
2019-04-30T16:15:36.168Z,10.73
2019-04-30T16:20:53.531Z,11.27
2019-04-30T16:26:11.102Z,13.77
2019-04-30T16:31:29.021Z,12.13
2019-04-30T16:36:46.192Z,8.83
2019-04-30T16:42:02.081Z,12.30
2019-04-30T16:47:19.896Z,7.83
2019-04-30T16:52:39.506Z,9.70
2019-04-30T16:57:55.604Z,11.17
2019-04-30T17:03:19.185Z,9.77
2019-04-30T17:08:46.158Z,8.77
2019-04-30T17:14:05.155Z,10.87
2019-04-30T17:19:33.462Z,10.70
2019-04-30T17:24:50.998Z,12.53
2019-04-30T17:30:09.323Z,9.47
2019-04-30T17:35:25.128Z,16.27
2019-04-30T17:40:40.969Z,10.23
2019-04-30T17:45:58.519Z,12.33
2019-04-30T17:51:14.454Z,12.93
2019-04-30T18:01:53.350Z,7.93
2019-04-30T18:07:10.017Z,11.20
2019-04-30T18:12:26.330Z,5.97
2019-04-30T18:17:44.076Z,7.07
2019-04-30T18:23:37.181Z,6.27
2019-04-30T18:28:52.971Z,8.33
2019-04-30T18:34:09.444Z,7.10
2019-04-30T18:39:29.011Z,7.87
2019-04-30T18:44:44.917Z,7.47
2019-04-30T18:50:01.141Z,6.57
2019-04-30T18:55:16.802Z,5.00
2019-04-30T19:00:40.442Z,6.70
2019-04-30T19:06:00.743Z,5.97
2019-04-30T19:11:35.362Z,6.37
2019-04-30T19:17:09.617Z,6.70
2019-04-30T19:22:25.733Z,7.20
2019-04-30T19:27:41.735Z,6.43
2019-04-30T19:33:17.169Z,7.23
2019-04-30T19:38:33.637Z,6.90
2019-04-30T19:43:50.174Z,6.53
2019-04-30T19:49:05.957Z,7.40
2019-04-30T19:54:22.141Z,5.80
2019-04-30T19:59:38.254Z,7.83
2019-04-30T20:04:59.052Z,5.60
2019-04-30T20:10:15.149Z,11.60
2019-04-30T20:15:30.868Z,6.20
2019-04-30T20:20:51.632Z,5.17
2019-04-30T20:26:06.593Z,7.53
2019-04-30T20:31:22.873Z,6.47
2019-04-30T20:36:38.996Z,5.17
2019-04-30T20:41:58.325Z,6.27
2019-04-30T20:47:25.292Z,7.50
2019-04-30T20:52:40.980Z,10.37
2019-04-30T20:57:56.531Z,9.43
2019-04-30T21:03:12.275Z,14.77
2019-04-30T21:08:28.193Z,15.37
2019-04-30T21:13:44.022Z,21.60
2019-04-30T21:18:59.920Z,14.67
2019-04-30T21:24:16.044Z,11.70
2019-04-30T21:29:31.625Z,13.17
2019-04-30T21:35:03.936Z,13.73
2019-04-30T21:40:20.213Z,15.23
2019-04-30T21:45:35.971Z,14.37
2019-04-30T21:50:51.993Z,12.50
2019-04-30T21:56:09.024Z,12.60
2019-04-30T22:01:26.043Z,11.20
2019-04-30T22:06:46.671Z,10.07
2019-04-30T22:12:04.236Z,11.20
2019-04-30T22:17:20.527Z,13.33
2019-04-30T22:22:39.093Z,13.57
2019-04-30T22:28:01.927Z,11.47
2019-04-30T22:33:19.384Z,10.47
2019-04-30T22:38:41.428Z,11.77
2019-04-30T22:44:01.394Z,8.67
2019-04-30T22:49:17.011Z,9.53
2019-04-30T22:54:33.162Z,10.17
2019-04-30T22:59:58.739Z,9.43
2019-04-30T23:05:16.742Z,11.40
2019-04-30T23:10:34.487Z,15.27
2019-04-30T23:15:58.541Z,11.87
2019-04-30T23:21:17.892Z,8.97
2019-04-30T23:26:34.035Z,14.40
2019-04-30T23:31:50.313Z,9.03
2019-04-30T23:37:06.041Z,10.97
2019-04-30T23:42:21.680Z,10.77
2019-04-30T23:47:45.410Z,10.20
2019-04-30T23:53:01.203Z,9.10
2019-04-30T23:58:17.291Z,10.00
